createdAt,value
2019-01-30T00:01:16.913Z,39.30
2019-01-30T00:03:44.380Z,35.33
2019-01-30T00:06:11.851Z,37.53
2019-01-30T00:08:39.365Z,38.00
2019-01-30T00:11:06.835Z,39.00
2019-01-30T00:13:34.294Z,38.53
2019-01-30T00:16:01.805Z,38.43
2019-01-30T00:18:29.274Z,39.80
2019-01-30T00:20:56.761Z,38.47
2019-01-30T00:23:24.429Z,39.90
2019-01-30T00:25:51.896Z,42.70
2019-01-30T00:28:19.398Z,39.33
2019-01-30T00:30:46.888Z,41.33
2019-01-30T00:33:14.349Z,43.33
2019-01-30T00:35:41.805Z,36.57
2019-01-30T00:38:09.281Z,38.77
2019-01-30T00:40:36.822Z,42.83
2019-01-30T00:43:04.391Z,44.13
2019-01-30T00:45:31.800Z,41.07
2019-01-30T00:47:59.358Z,43.97
2019-01-30T00:50:26.818Z,43.00
2019-01-30T00:52:54.287Z,44.50
2019-01-30T00:55:21.917Z,47.80
2019-01-30T00:57:49.384Z,43.70
2019-01-30T01:00:18.443Z,49.90
2019-01-30T01:02:46.045Z,48.10
2019-01-30T01:05:13.919Z,40.87
2019-01-30T01:07:41.777Z,41.67
2019-01-30T01:10:10.810Z,43.43
2019-01-30T01:12:38.286Z,41.80
2019-01-30T01:15:08.006Z,43.80
2019-01-30T01:17:35.467Z,45.73
2019-01-30T01:20:04.647Z,42.50
2019-01-30T01:22:32.127Z,47.70
2019-01-30T01:24:59.673Z,46.53
2019-01-30T01:27:27.149Z,48.90
2019-01-30T01:29:54.639Z,46.23
2019-01-30T01:32:22.124Z,44.27
2019-01-30T01:34:49.578Z,48.53
2019-01-30T01:37:17.059Z,43.50
2019-01-30T01:39:44.536Z,49.63
2019-01-30T01:42:12.405Z,46.57
2019-01-30T01:44:39.894Z,42.20
2019-01-30T01:47:07.376Z,42.07
2019-01-30T01:49:34.831Z,47.93
2019-01-30T01:52:02.285Z,43.20
2019-01-30T01:54:29.810Z,41.03
2019-01-30T01:56:57.303Z,40.60
2019-01-30T01:59:24.788Z,42.07
2019-01-30T02:01:52.280Z,46.83
2019-01-30T02:04:19.742Z,42.87
2019-01-30T02:06:47.225Z,42.30
2019-01-30T02:09:14.706Z,45.10
2019-01-30T02:11:42.209Z,44.67
2019-01-30T02:14:09.673Z,45.90
2019-01-30T02:16:37.131Z,44.03
2019-01-30T02:19:04.665Z,40.83
2019-01-30T02:21:32.145Z,45.80
2019-01-30T02:23:59.664Z,41.60
2019-01-30T02:26:27.166Z,45.27
2019-01-30T02:28:54.630Z,46.80
2019-01-30T02:31:22.101Z,47.60
2019-01-30T02:33:49.623Z,41.27
2019-01-30T02:36:17.083Z,50.30
2019-01-30T02:38:44.543Z,44.73
2019-01-30T02:41:12.039Z,45.27
2019-01-30T02:43:39.550Z,45.70
2019-01-30T02:46:07.043Z,49.40
2019-01-30T02:48:34.570Z,48.23
2019-01-30T02:51:02.162Z,50.63
2019-01-30T02:53:29.635Z,50.93
2019-01-30T02:55:57.081Z,46.80
2019-01-30T02:58:24.547Z,50.30
2019-01-30T03:00:58.967Z,47.43
2019-01-30T03:03:21.516Z,48.07
2019-01-30T03:05:48.977Z,44.27
2019-01-30T03:08:16.464Z,52.03
2019-01-30T03:10:43.906Z,46.40
2019-01-30T03:13:11.450Z,47.33
2019-01-30T03:15:38.903Z,43.20
2019-01-30T03:18:06.402Z,45.30
2019-01-30T03:20:33.926Z,42.37
2019-01-30T03:23:01.379Z,39.40
2019-01-30T03:25:28.846Z,41.80
2019-01-30T03:27:56.352Z,41.70
2019-01-30T03:30:26.307Z,41.50
2019-01-30T03:32:53.884Z,41.90
2019-01-30T03:35:21.323Z,39.57
2019-01-30T03:37:48.811Z,44.13
2019-01-30T03:40:17.297Z,44.07
2019-01-30T03:42:44.801Z,41.67
2019-01-30T03:45:13.138Z,41.97
2019-01-30T03:47:40.771Z,41.20
2019-01-30T03:50:09.295Z,42.77
2019-01-30T03:52:36.848Z,44.30
2019-01-30T03:55:05.040Z,48.13
2019-01-30T03:57:32.505Z,45.33
2019-01-30T04:00:00.001Z,37.23
2019-01-30T04:02:27.474Z,44.37
2019-01-30T04:04:54.961Z,42.30
2019-01-30T04:07:22.431Z,39.43
2019-01-30T04:09:49.912Z,42.00
2019-01-30T04:12:17.419Z,39.90
2019-01-30T04:14:44.880Z,42.17
2019-01-30T04:17:12.342Z,41.77
2019-01-30T04:19:39.838Z,41.63
2019-01-30T04:22:07.347Z,42.57
2019-01-30T04:24:34.817Z,42.63
2019-01-30T04:27:02.304Z,40.43
2019-01-30T04:29:29.797Z,39.67
2019-01-30T04:31:57.283Z,44.13
2019-01-30T04:34:24.832Z,45.70
2019-01-30T04:36:52.347Z,39.77
2019-01-30T04:39:19.818Z,45.57
2019-01-30T04:41:47.302Z,42.27
2019-01-30T04:44:14.799Z,35.93
2019-01-30T04:46:42.251Z,39.10
2019-01-30T04:49:09.769Z,45.20
2019-01-30T04:51:37.214Z,36.23
2019-01-30T04:54:04.675Z,40.77
2019-01-30T04:56:32.172Z,44.30
2019-01-30T04:58:59.643Z,37.93
2019-01-30T05:01:27.203Z,38.90
2019-01-30T05:03:54.717Z,38.03
2019-01-30T05:06:22.205Z,38.67
2019-01-30T05:08:49.688Z,41.73
2019-01-30T05:11:17.190Z,42.27
2019-01-30T05:13:44.725Z,43.47
2019-01-30T05:16:12.207Z,41.67
2019-01-30T05:18:39.737Z,38.20
2019-01-30T05:21:07.228Z,36.03
2019-01-30T05:23:34.679Z,36.93
2019-01-30T05:26:02.198Z,46.67
2019-01-30T05:28:29.673Z,42.83
2019-01-30T05:30:57.179Z,40.43
2019-01-30T05:33:24.691Z,40.97
2019-01-30T05:35:52.397Z,39.57
2019-01-30T05:38:22.651Z,40.67
2019-01-30T05:40:50.134Z,36.33
2019-01-30T05:43:17.665Z,37.17
2019-01-30T05:45:45.149Z,33.37
2019-01-30T05:48:12.659Z,37.17
2019-01-30T05:50:40.144Z,37.13
2019-01-30T05:53:07.643Z,40.30
2019-01-30T05:55:38.131Z,37.80
2019-01-30T05:58:05.600Z,34.90
2019-01-30T06:00:51.305Z,39.23
2019-01-30T06:03:18.781Z,32.83
2019-01-30T06:05:46.657Z,38.67
2019-01-30T06:08:14.123Z,39.67
2019-01-30T06:10:41.917Z,32.97
2019-01-30T06:13:09.500Z,33.37
2019-01-30T06:15:36.959Z,36.33
2019-01-30T06:18:04.544Z,36.43
2019-01-30T06:20:32.023Z,33.73
2019-01-30T06:23:01.712Z,34.13
2019-01-30T06:25:28.796Z,36.03
2019-01-30T06:27:56.242Z,32.17
2019-01-30T06:30:23.882Z,34.20
2019-01-30T06:32:51.472Z,37.20
2019-01-30T06:35:19.103Z,35.27
2019-01-30T06:37:46.635Z,33.53
2019-01-30T06:40:19.236Z,34.23
2019-01-30T06:42:46.758Z,35.10
2019-01-30T06:45:14.261Z,34.43
2019-01-30T06:47:41.796Z,33.40
2019-01-30T06:50:10.385Z,36.43
2019-01-30T06:52:37.876Z,32.67
2019-01-30T06:55:05.692Z,39.20
2019-01-30T06:57:33.281Z,32.30
2019-01-30T07:00:00.758Z,34.43
2019-01-30T07:02:32.355Z,35.40
2019-01-30T07:04:57.791Z,31.13
2019-01-30T07:07:25.261Z,32.03
2019-01-30T07:09:52.749Z,31.80
2019-01-30T07:12:20.254Z,33.90
2019-01-30T07:14:47.735Z,26.47
2019-01-30T07:17:15.216Z,31.60
2019-01-30T07:19:42.748Z,27.07
2019-01-30T07:22:10.226Z,34.60
2019-01-30T07:24:37.710Z,33.03
2019-01-30T07:27:05.210Z,26.37
2019-01-30T07:29:32.693Z,28.53
2019-01-30T07:32:00.229Z,25.47
2019-01-30T07:34:27.681Z,26.30
2019-01-30T07:36:55.196Z,30.90
2019-01-30T07:39:22.690Z,29.00
2019-01-30T07:41:50.234Z,30.17
2019-01-30T07:44:17.737Z,24.43
2019-01-30T07:46:45.271Z,26.30
2019-01-30T07:49:12.730Z,32.37
2019-01-30T07:51:40.253Z,33.83
2019-01-30T07:54:07.724Z,31.23
2019-01-30T07:56:35.192Z,28.30
2019-01-30T07:59:02.859Z,21.57
2019-01-30T08:01:30.570Z,35.33
2019-01-30T08:03:58.049Z,28.90
2019-01-30T08:06:25.513Z,25.67
2019-01-30T08:08:53.068Z,23.50
2019-01-30T08:11:20.546Z,24.53
2019-01-30T08:13:47.995Z,19.60
2019-01-30T08:16:15.976Z,23.27
2019-01-30T08:18:43.491Z,24.67
2019-01-30T08:21:11.095Z,20.93
2019-01-30T08:23:38.975Z,22.23
2019-01-30T08:26:06.831Z,20.90
2019-01-30T08:28:34.515Z,22.93
2019-01-30T08:31:01.953Z,24.27
2019-01-30T08:33:29.398Z,22.13
2019-01-30T08:35:56.933Z,19.30
2019-01-30T08:38:24.423Z,21.90
2019-01-30T08:40:51.904Z,22.83
2019-01-30T08:43:19.434Z,22.43
2019-01-30T08:45:46.913Z,25.37
2019-01-30T08:48:14.396Z,23.17
2019-01-30T08:50:41.922Z,21.00
2019-01-30T08:53:09.430Z,21.40
2019-01-30T08:55:36.909Z,23.10
2019-01-30T08:58:04.426Z,20.73
2019-01-30T09:00:31.891Z,23.80
2019-01-30T09:02:59.417Z,37.70
2019-01-30T09:05:26.990Z,27.83
2019-01-30T09:07:54.798Z,26.20
2019-01-30T09:10:23.230Z,19.90
2019-01-30T09:12:50.761Z,21.17
2019-01-30T09:15:19.884Z,18.97
2019-01-30T09:17:47.478Z,20.60
2019-01-30T09:20:16.837Z,18.33
2019-01-30T09:22:44.348Z,19.77
2019-01-30T09:25:14.479Z,19.17
2019-01-30T09:27:41.978Z,20.03
2019-01-30T09:30:13.434Z,18.10
2019-01-30T09:32:40.937Z,19.87
2019-01-30T09:35:10.941Z,23.57
2019-01-30T09:37:38.498Z,21.83
2019-01-30T09:40:06.127Z,19.17
2019-01-30T09:42:33.590Z,17.60
2019-01-30T09:45:01.115Z,15.10
2019-01-30T09:47:28.579Z,17.90
2019-01-30T09:49:56.076Z,16.93
2019-01-30T09:52:26.951Z,16.90
2019-01-30T09:54:52.862Z,16.00
2019-01-30T09:57:20.402Z,16.77
2019-01-30T09:59:47.884Z,16.37
2019-01-30T10:02:15.477Z,17.33
2019-01-30T10:04:42.933Z,14.17
2019-01-30T10:07:10.422Z,17.10
2019-01-30T10:09:37.918Z,16.93
2019-01-30T10:12:05.408Z,14.97
2019-01-30T10:14:32.911Z,15.80
2019-01-30T10:17:00.496Z,13.47
2019-01-30T10:19:27.876Z,12.63
2019-01-30T10:21:55.438Z,14.77
2019-01-30T10:24:22.953Z,13.53
2019-01-30T10:26:50.380Z,13.87
2019-01-30T10:29:17.856Z,14.63
2019-01-30T10:31:45.557Z,14.70
2019-01-30T10:34:14.443Z,14.80
2019-01-30T10:36:41.924Z,15.57
2019-01-30T10:39:10.161Z,16.37
2019-01-30T10:41:37.629Z,15.53
2019-01-30T10:44:05.133Z,15.30
2019-01-30T10:46:32.636Z,13.93
2019-01-30T10:49:00.140Z,17.90
2019-01-30T10:51:27.620Z,16.40
2019-01-30T10:53:55.127Z,14.20
2019-01-30T10:56:22.612Z,15.00
2019-01-30T10:58:50.307Z,14.17
2019-01-30T11:01:17.760Z,12.93
2019-01-30T11:03:45.215Z,13.80
2019-01-30T11:06:12.740Z,14.47
2019-01-30T11:08:40.208Z,12.57
2019-01-30T11:11:08.369Z,13.27
2019-01-30T11:13:35.948Z,13.50
2019-01-30T11:16:04.113Z,12.73
2019-01-30T11:18:31.707Z,14.53
2019-01-30T11:20:59.164Z,15.10
2019-01-30T11:23:26.689Z,14.07
2019-01-30T11:25:54.188Z,13.70
2019-01-30T11:28:21.654Z,12.63
2019-01-30T11:30:49.200Z,14.43
2019-01-30T11:33:16.725Z,13.77
2019-01-30T11:35:44.238Z,12.53
2019-01-30T11:38:11.752Z,15.77
2019-01-30T11:40:39.223Z,10.93
2019-01-30T11:43:06.799Z,14.50
2019-01-30T11:45:36.410Z,12.57
2019-01-30T11:48:04.106Z,13.57
2019-01-30T11:50:31.659Z,12.13
2019-01-30T11:52:59.203Z,15.47
2019-01-30T11:55:26.835Z,11.63
2019-01-30T11:57:54.305Z,12.03
2019-01-30T12:00:26.992Z,13.43
2019-01-30T12:02:54.713Z,11.80
2019-01-30T12:05:22.186Z,10.63
2019-01-30T12:07:49.669Z,9.50
2019-01-30T12:10:17.188Z,13.83
2019-01-30T12:12:44.651Z,9.57
2019-01-30T12:15:14.980Z,10.17
2019-01-30T12:17:42.476Z,11.13
2019-01-30T12:20:11.085Z,13.23
2019-01-30T12:22:38.528Z,12.27
2019-01-30T12:25:07.226Z,9.93
2019-01-30T12:27:34.716Z,10.27
2019-01-30T12:30:03.393Z,10.60
2019-01-30T12:32:30.978Z,14.50
2019-01-30T12:34:58.440Z,11.37
2019-01-30T12:37:25.944Z,11.37
2019-01-30T12:39:53.478Z,12.73
2019-01-30T12:42:20.964Z,11.83
2019-01-30T12:44:48.440Z,11.87
2019-01-30T12:47:20.004Z,10.10
2019-01-30T12:49:45.217Z,10.10
2019-01-30T12:52:12.726Z,14.77
2019-01-30T12:54:40.226Z,11.17
2019-01-30T12:57:07.765Z,12.30
2019-01-30T12:59:35.197Z,13.53
2019-01-30T13:02:03.148Z,12.40
2019-01-30T13:04:38.700Z,13.67
2019-01-30T13:06:59.870Z,17.07
2019-01-30T13:09:28.572Z,11.83
2019-01-30T13:11:56.070Z,11.53
2019-01-30T13:14:23.571Z,11.37
2019-01-30T13:16:51.052Z,7.40
2019-01-30T13:19:18.562Z,9.30
2019-01-30T13:21:46.059Z,10.57
2019-01-30T13:24:13.520Z,9.50
2019-01-30T13:26:41.026Z,12.73
2019-01-30T13:29:08.527Z,10.00
2019-01-30T13:31:35.989Z,10.23
2019-01-30T13:34:03.924Z,10.23
2019-01-30T13:36:31.387Z,10.70
2019-01-30T13:38:58.841Z,11.03
2019-01-30T13:41:26.335Z,11.63
2019-01-30T13:43:55.819Z,13.67
2019-01-30T13:46:23.327Z,10.23
2019-01-30T13:48:50.797Z,9.73
2019-01-30T13:51:18.290Z,14.57
2019-01-30T13:53:45.775Z,10.90
2019-01-30T13:56:13.244Z,11.87
2019-01-30T13:58:42.644Z,11.13
2019-01-30T14:01:17.350Z,13.10
2019-01-30T14:03:39.302Z,10.37
2019-01-30T14:06:06.775Z,11.83
2019-01-30T14:08:34.580Z,13.10
2019-01-30T14:11:02.082Z,12.50
2019-01-30T14:13:29.561Z,9.67
2019-01-30T14:15:57.235Z,11.57
2019-01-30T14:18:24.700Z,12.50
2019-01-30T14:20:52.175Z,16.23
2019-01-30T14:23:19.735Z,11.83
2019-01-30T14:25:47.196Z,15.23
2019-01-30T14:28:14.658Z,13.37
2019-01-30T14:30:42.281Z,13.07
2019-01-30T14:33:09.692Z,12.13
2019-01-30T14:35:39.470Z,12.03
2019-01-30T14:38:06.945Z,12.53
2019-01-30T14:40:34.444Z,12.80
2019-01-30T14:43:02.012Z,11.20
2019-01-30T14:45:29.467Z,10.90
2019-01-30T14:47:56.976Z,12.20
2019-01-30T14:50:24.858Z,11.70
2019-01-30T14:52:52.356Z,11.13
2019-01-30T14:55:19.849Z,10.57
2019-01-30T14:57:47.870Z,10.53
2019-01-30T15:00:20.455Z,10.60
2019-01-30T15:02:48.025Z,9.33
2019-01-30T15:05:22.513Z,11.73
2019-01-30T15:07:45.184Z,10.40
2019-01-30T15:10:14.486Z,11.10
2019-01-30T15:12:42.016Z,10.70
2019-01-30T15:15:11.720Z,12.37
2019-01-30T15:17:39.338Z,15.63
2019-01-30T15:20:10.893Z,12.63
2019-01-30T15:22:38.408Z,13.03
2019-01-30T15:25:06.906Z,12.30
2019-01-30T15:27:34.392Z,11.57
2019-01-30T15:30:01.873Z,11.13
2019-01-30T15:32:31.722Z,12.10
2019-01-30T15:34:58.665Z,14.97
2019-01-30T15:37:26.160Z,13.27
2019-01-30T15:39:53.645Z,13.37
2019-01-30T15:42:21.142Z,20.53
2019-01-30T15:44:48.596Z,30.50
2019-01-30T15:47:16.076Z,33.70
2019-01-30T15:49:43.551Z,24.00
2019-01-30T15:52:11.062Z,22.03
2019-01-30T15:54:38.567Z,19.57
2019-01-30T15:57:06.087Z,25.70
2019-01-30T15:59:33.656Z,18.00
2019-01-30T16:02:01.438Z,24.87
2019-01-30T16:04:28.903Z,14.50
2019-01-30T16:06:56.360Z,13.73
2019-01-30T16:09:23.897Z,15.03
2019-01-30T16:11:51.362Z,17.50
2019-01-30T16:14:18.864Z,13.93
2019-01-30T16:16:46.392Z,17.73
2019-01-30T16:19:13.884Z,16.40
2019-01-30T16:21:41.343Z,14.73
2019-01-30T16:24:08.824Z,11.60
2019-01-30T16:26:36.305Z,12.27
2019-01-30T16:29:03.914Z,11.83
2019-01-30T16:31:31.395Z,5.00
2019-01-30T16:33:58.862Z,4.63
2019-01-30T16:36:26.385Z,3.23
2019-01-30T16:38:53.871Z,1.93
2019-01-30T16:41:21.337Z,1.63
2019-01-30T16:43:48.864Z,1.53
2019-01-30T16:46:16.347Z,1.30
2019-01-30T16:48:43.883Z,1.57
2019-01-30T16:51:11.388Z,2.57
2019-01-30T16:53:38.865Z,1.90
2019-01-30T16:56:06.458Z,0.60
2019-01-30T16:58:33.966Z,0.50
2019-01-30T17:01:01.471Z,0.60
2019-01-30T17:03:28.984Z,0.40
2019-01-30T17:06:06.734Z,0.60
2019-01-30T17:08:25.900Z,0.97
2019-01-30T17:10:53.384Z,0.40
2019-01-30T17:13:20.862Z,0.60
2019-01-30T17:15:48.339Z,0.40
2019-01-30T17:18:16.036Z,0.50
2019-01-30T17:20:43.543Z,1.20
2019-01-30T17:23:11.250Z,0.50
2019-01-30T17:25:38.943Z,0.47
2019-01-30T17:28:06.452Z,3.00
2019-01-30T17:30:42.512Z,0.67
2019-01-30T17:33:10.060Z,0.60
2019-01-30T17:35:38.571Z,0.73
2019-01-30T17:38:06.221Z,0.50
2019-01-30T17:45:58.248Z,2.37
2019-01-30T17:48:25.783Z,2.27
2019-01-30T17:50:53.310Z,1.23
2019-01-30T17:53:20.805Z,0.70
2019-01-30T17:55:48.315Z,0.60
2019-01-30T17:58:15.942Z,0.80
2019-01-30T18:00:48.363Z,0.80
2019-01-30T18:03:15.826Z,2.00
2019-01-30T18:05:43.490Z,1.30
2019-01-30T18:08:10.980Z,1.13
2019-01-30T18:10:38.478Z,13.40
2019-01-30T18:13:06.008Z,3.13
2019-01-30T18:15:33.520Z,0.63
2019-01-30T18:18:01.048Z,0.70
2019-01-30T18:20:28.577Z,0.70
2019-01-30T18:22:56.136Z,0.90
2019-01-30T18:25:23.638Z,1.10
2019-01-30T18:27:51.163Z,0.90
2019-01-30T18:30:18.670Z,0.97
2019-01-30T18:32:46.224Z,0.80
2019-01-30T18:35:14.100Z,1.13
2019-01-30T18:37:41.660Z,1.07
2019-01-30T18:40:12.054Z,1.00
2019-01-30T18:42:39.839Z,0.70
2019-01-30T18:45:08.996Z,2.40
2019-01-30T18:47:36.516Z,1.13
2019-01-30T18:50:05.988Z,1.83
2019-01-30T18:52:33.520Z,1.23
2019-01-30T18:55:01.028Z,1.10
2019-01-30T18:57:28.603Z,1.43
2019-01-30T18:59:56.089Z,0.70
2019-01-30T19:02:23.570Z,1.33
2019-01-30T19:04:51.099Z,0.63
2019-01-30T19:07:18.596Z,2.37
2019-01-30T19:09:46.046Z,0.80
2019-01-30T19:12:13.554Z,0.80
2019-01-30T19:14:41.062Z,0.90
2019-01-30T19:17:08.590Z,3.87
2019-01-30T19:19:36.185Z,9.63
2019-01-30T19:22:04.284Z,1.10
2019-01-30T19:24:32.000Z,0.70
2019-01-30T19:26:59.513Z,0.80
2019-01-30T19:29:27.022Z,0.53
2019-01-30T19:31:54.543Z,0.80
2019-01-30T19:34:22.150Z,1.13
2019-01-30T19:36:49.637Z,1.00
2019-01-30T19:39:17.149Z,0.67
2019-01-30T19:41:44.636Z,0.67
2019-01-30T19:44:12.117Z,0.80
2019-01-30T19:46:39.730Z,0.80
2019-01-30T19:49:07.301Z,1.40
2019-01-30T19:51:34.806Z,1.53
2019-01-30T19:54:02.378Z,0.93
2019-01-30T19:56:30.157Z,0.70
2019-01-30T19:58:57.790Z,1.40
2019-01-30T20:01:35.666Z,0.77
2019-01-30T20:03:54.643Z,2.83
2019-01-30T20:06:22.206Z,1.00
2019-01-30T20:08:49.737Z,0.80
2019-01-30T20:11:17.279Z,1.20
2019-01-30T20:13:44.841Z,1.07
2019-01-30T20:16:12.374Z,1.80
2019-01-30T20:18:39.893Z,3.00
2019-01-30T20:21:07.439Z,1.47
2019-01-30T20:23:34.968Z,3.13
2019-01-30T20:26:02.607Z,2.43
2019-01-30T20:28:30.156Z,1.97
2019-01-30T20:30:57.655Z,2.63
2019-01-30T20:33:25.154Z,3.30
2019-01-30T20:35:52.659Z,1.00
2019-01-30T20:38:20.162Z,1.80
2019-01-30T20:40:47.853Z,3.90
2019-01-30T20:43:15.423Z,2.63
2019-01-30T20:45:42.968Z,2.80
2019-01-30T20:48:10.565Z,3.37
2019-01-30T20:50:38.040Z,3.30
2019-01-30T20:53:05.564Z,5.17
2019-01-30T20:55:33.048Z,1.90
2019-01-30T20:58:01.286Z,4.53
2019-01-30T21:00:35.281Z,7.90
2019-01-30T21:03:02.952Z,2.83
2019-01-30T21:05:30.418Z,10.47
2019-01-30T21:07:57.907Z,14.47
2019-01-30T21:10:28.043Z,8.17
2019-01-30T21:12:55.601Z,9.47
2019-01-30T21:15:23.207Z,10.27
2019-01-30T21:17:50.709Z,8.27
2019-01-30T21:20:18.254Z,1.90
2019-01-30T21:22:45.736Z,31.30
2019-01-30T21:25:15.524Z,11.23
2019-01-30T21:27:43.046Z,10.93
2019-01-30T21:30:12.992Z,8.27
2019-01-30T21:32:40.520Z,12.27
2019-01-30T21:35:08.037Z,16.43
2019-01-30T21:37:35.532Z,11.13
2019-01-30T21:40:04.777Z,16.33
2019-01-30T21:42:32.234Z,3.20
2019-01-30T21:45:00.753Z,2.80
2019-01-30T21:47:28.271Z,10.60
2019-01-30T21:49:55.754Z,10.93
2019-01-30T21:52:23.298Z,7.40
2019-01-30T21:54:50.829Z,11.93
2019-01-30T21:57:18.311Z,38.50
2019-01-30T21:59:45.819Z,18.47
2019-01-30T22:02:13.376Z,8.20
2019-01-30T22:04:41.018Z,28.37
2019-01-30T22:07:08.521Z,10.67
2019-01-30T22:09:36.019Z,22.50
2019-01-30T22:12:04.841Z,86.10
2019-01-30T22:14:32.340Z,33.07
2019-01-30T22:16:59.826Z,16.27
2019-01-30T22:19:27.313Z,6.03
2019-01-30T22:21:54.832Z,4.47
2019-01-30T22:24:22.292Z,2.50
2019-01-30T22:26:49.814Z,4.17
2019-01-30T22:29:17.335Z,4.57
2019-01-30T22:31:44.881Z,2.47
2019-01-30T22:34:13.416Z,1.93
2019-01-30T22:36:41.095Z,6.50
2019-01-30T22:39:08.856Z,3.77
2019-01-30T22:41:36.418Z,3.33
2019-01-30T22:44:03.918Z,2.27
2019-01-30T22:46:31.464Z,3.63
2019-01-30T22:48:58.985Z,2.90
2019-01-30T22:51:26.470Z,3.67
2019-01-30T22:53:53.947Z,1.77
2019-01-30T22:56:21.588Z,2.20
2019-01-30T22:58:49.056Z,1.60
2019-01-30T23:01:43.932Z,3.70
2019-01-30T23:05:17.432Z,2.20
2019-01-30T23:08:22.888Z,3.73
2019-01-30T23:11:22.184Z,2.93
2019-01-30T23:13:59.191Z,1.60
2019-01-30T23:17:14.860Z,1.70
2019-01-30T23:19:56.119Z,1.97
2019-01-30T23:22:54.748Z,1.53
2019-01-30T23:25:43.158Z,3.03
2019-01-30T23:28:54.071Z,31.10
2019-01-30T23:31:47.234Z,4.23
2019-01-30T23:35:02.268Z,3.50
2019-01-30T23:37:42.059Z,2.30
2019-01-30T23:40:28.512Z,1.93
2019-01-30T23:43:46.598Z,2.63
2019-01-30T23:46:55.692Z,3.80
2019-01-30T23:50:02.315Z,1.47
2019-01-30T23:53:10.257Z,3.30
2019-01-30T23:56:06.595Z,2.00
2019-01-30T23:59:04.922Z,3.23
